sensor_id;sensor_type;location;lat;lon;timestamp;temperature;humidity
4223;DHT22;2125;51.436;14.138;2022-10-26T07:49:59;10.80;84.60
4223;DHT22;2125;51.436;14.138;2022-10-26T07:52:27;11.10;84.60
4223;DHT22;2125;51.436;14.138;2022-10-26T07:54:54;11.30;84.40
4223;DHT22;2125;51.436;14.138;2022-10-26T07:57:20;11.60;84.50
4223;DHT22;2125;51.436;14.138;2022-10-26T07:59:47;11.90;84.40
4223;DHT22;2125;51.436;14.138;2022-10-26T08:02:14;12.10;84.60
4223;DHT22;2125;51.436;14.138;2022-10-26T08:04:40;12.30;84.70
4223;DHT22;2125;51.436;14.138;2022-10-26T08:07:08;12.50;84.80
4223;DHT22;2125;51.436;14.138;2022-10-26T08:09:35;12.80;85.00
4223;DHT22;2125;51.436;14.138;2022-10-26T08:12:01;12.90;85.10
4223;DHT22;2125;51.436;14.138;2022-10-26T08:14:28;13.00;85.10
4223;DHT22;2125;51.436;14.138;2022-10-26T08:16:54;13.10;85.20
4223;DHT22;2125;51.436;14.138;2022-10-26T08:19:22;13.20;85.20
4223;DHT22;2125;51.436;14.138;2022-10-26T08:21:48;13.30;85.20
4223;DHT22;2125;51.436;14.138;2022-10-26T08:24:16;13.40;85.20
4223;DHT22;2125;51.436;14.138;2022-10-26T08:26:43;13.50;85.30
4223;DHT22;2125;51.436;14.138;2022-10-26T08:29:09;13.60;85.10
4223;DHT22;2125;51.436;14.138;2022-10-26T08:31:36;13.60;85.10
4223;DHT22;2125;51.436;14.138;2022-10-26T08:34:03;13.60;85.10
4223;DHT22;2125;51.436;14.138;2022-10-26T08:36:29;13.70;85.10
4223;DHT22;2125;51.436;14.138;2022-10-26T08:38:56;13.70;85.10
4223;DHT22;2125;51.436;14.138;2022-10-26T08:41:33;13.70;85.00
4223;DHT22;2125;51.436;14.138;2022-10-26T08:44:06;13.80;84.90
4223;DHT22;2125;51.436;14.138;2022-10-26T08:46:40;13.80;84.90
4223;DHT22;2125;51.436;14.138;2022-10-26T08:49:17;13.80;84.80
4223;DHT22;2125;51.436;14.138;2022-10-26T08:51:48;13.90;84.90
4223;DHT22;2125;51.436;14.138;2022-10-26T08:54:18;14.00;84.90
4223;DHT22;2125;51.436;14.138;2022-10-26T08:56:50;14.00;84.90
4223;DHT22;2125;51.436;14.138;2022-10-26T08:59:25;14.00;84.80
4223;DHT22;2125;51.436;14.138;2022-10-26T09:01:55;14.10;84.70
4223;DHT22;2125;51.436;14.138;2022-10-26T09:04:25;14.10;84.60
4223;DHT22;2125;51.436;14.138;2022-10-26T09:06:58;14.20;84.60
4223;DHT22;2125;51.436;14.138;2022-10-26T09:09:38;14.30;84.60
4223;DHT22;2125;51.436;14.138;2022-10-26T09:12:15;14.40;84.40
4223;DHT22;2125;51.436;14.138;2022-10-26T09:14:58;14.70;84.40
4223;DHT22;2125;51.436;14.138;2022-10-26T09:17:37;15.00;83.70
4223;DHT22;2125;51.436;14.138;2022-10-26T09:20:20;15.30;83.30
4223;DHT22;2125;51.436;14.138;2022-10-26T09:22:59;15.50;82.90
4223;DHT22;2125;51.436;14.138;2022-10-26T09:25:33;15.80;82.50
4223;DHT22;2125;51.436;14.138;2022-10-26T09:28:09;15.90;81.90
4223;DHT22;2125;51.436;14.138;2022-10-26T09:30:39;16.00;81.10
4223;DHT22;2125;51.436;14.138;2022-10-26T09:33:13;16.10;81.30
4223;DHT22;2125;51.436;14.138;2022-10-26T09:35:42;16.20;81.00
4223;DHT22;2125;51.436;14.138;2022-10-26T09:38:18;16.20;80.90
4223;DHT22;2125;51.436;14.138;2022-10-26T09:40:51;16.20;80.50
4223;DHT22;2125;51.436;14.138;2022-10-26T09:43:27;16.10;80.90
4223;DHT22;2125;51.436;14.138;2022-10-26T09:45:55;16.00;81.40
4223;DHT22;2125;51.436;14.138;2022-10-26T09:48:30;15.80;81.70
4223;DHT22;2125;51.436;14.138;2022-10-26T09:50:58;15.80;82.30
4223;DHT22;2125;51.436;14.138;2022-10-26T09:53:25;16.00;82.30
4223;DHT22;2125;51.436;14.138;2022-10-26T09:56:00;16.10;82.10
4223;DHT22;2125;51.436;14.138;2022-10-26T09:58:34;16.20;81.90
4223;DHT22;2125;51.436;14.138;2022-10-26T10:01:02;16.20;81.60
4223;DHT22;2125;51.436;14.138;2022-10-26T10:03:30;16.30;81.80
4223;DHT22;2125;51.436;14.138;2022-10-26T10:06:15;16.40;81.70
4223;DHT22;2125;51.436;14.138;2022-10-26T10:09:03;16.60;81.60
4223;DHT22;2125;51.436;14.138;2022-10-26T10:11:37;16.70;81.00
4223;DHT22;2125;51.436;14.138;2022-10-26T10:14:08;16.70;80.90
4223;DHT22;2125;51.436;14.138;2022-10-26T10:16:35;16.90;80.30
4223;DHT22;2125;51.436;14.138;2022-10-26T10:19:02;17.10;79.60
4223;DHT22;2125;51.436;14.138;2022-10-26T10:21:33;17.20;79.10
4223;DHT22;2125;51.436;14.138;2022-10-26T10:24:21;17.20;79.50
4223;DHT22;2125;51.436;14.138;2022-10-26T10:26:56;17.20;78.70
4223;DHT22;2125;51.436;14.138;2022-10-26T10:29:25;17.20;78.50
4223;DHT22;2125;51.436;14.138;2022-10-26T10:32:01;17.10;78.50
4223;DHT22;2125;51.436;14.138;2022-10-26T10:34:32;17.20;78.80
4223;DHT22;2125;51.436;14.138;2022-10-26T10:37:00;17.30;78.90
4223;DHT22;2125;51.436;14.138;2022-10-26T10:39:41;17.30;79.00
4223;DHT22;2125;51.436;14.138;2022-10-26T10:42:16;17.30;79.00
4223;DHT22;2125;51.436;14.138;2022-10-26T10:44:45;17.30;79.40
4223;DHT22;2125;51.436;14.138;2022-10-26T10:47:20;17.10;79.30
4223;DHT22;2125;51.436;14.138;2022-10-26T10:49:53;17.00;79.80
4223;DHT22;2125;51.436;14.138;2022-10-26T10:52:24;16.80;79.90
4223;DHT22;2125;51.436;14.138;2022-10-26T10:55:06;16.60;79.80
4223;DHT22;2125;51.436;14.138;2022-10-26T10:57:45;16.50;80.40
4223;DHT22;2125;51.436;14.138;2022-10-26T11:00:22;16.40;81.00
4223;DHT22;2125;51.436;14.138;2022-10-26T11:03:14;16.40;81.20
4223;DHT22;2125;51.436;14.138;2022-10-26T11:05:57;16.30;81.20
4223;DHT22;2125;51.436;14.138;2022-10-26T11:08:27;16.20;81.00
4223;DHT22;2125;51.436;14.138;2022-10-26T11:11:01;16.20;81.00
4223;DHT22;2125;51.436;14.138;2022-10-26T11:13:34;16.20;81.10
4223;DHT22;2125;51.436;14.138;2022-10-26T11:16:05;16.20;81.50
4223;DHT22;2125;51.436;14.138;2022-10-26T11:18:38;16.20;81.70
4223;DHT22;2125;51.436;14.138;2022-10-26T11:21:13;16.30;81.40
4223;DHT22;2125;51.436;14.138;2022-10-26T11:23:44;16.30;81.50
4223;DHT22;2125;51.436;14.138;2022-10-26T11:26:16;16.30;81.50
4223;DHT22;2125;51.436;14.138;2022-10-26T11:28:48;16.30;81.70
4223;DHT22;2125;51.436;14.138;2022-10-26T11:31:20;16.40;81.80
4223;DHT22;2125;51.436;14.138;2022-10-26T11:34:00;16.40;81.50
4223;DHT22;2125;51.436;14.138;2022-10-26T11:36:30;16.40;81.50
4223;DHT22;2125;51.436;14.138;2022-10-26T11:39:07;16.50;81.70
4223;DHT22;2125;51.436;14.138;2022-10-26T11:41:40;16.60;80.80
4223;DHT22;2125;51.436;14.138;2022-10-26T11:44:12;16.60;80.90
4223;DHT22;2125;51.436;14.138;2022-10-26T11:46:45;16.60;81.20
4223;DHT22;2125;51.436;14.138;2022-10-26T11:49:20;16.70;80.70
4223;DHT22;2125;51.436;14.138;2022-10-26T11:51:50;16.80;80.30
4223;DHT22;2125;51.436;14.138;2022-10-26T11:54:21;16.90;80.30
4223;DHT22;2125;51.436;14.138;2022-10-26T11:56:52;16.90;80.30
4223;DHT22;2125;51.436;14.138;2022-10-26T11:59:24;16.90;80.00
4223;DHT22;2125;51.436;14.138;2022-10-26T12:01:55;17.00;80.10
4223;DHT22;2125;51.436;14.138;2022-10-26T12:04:29;17.10;79.60
4223;DHT22;2125;51.436;14.138;2022-10-26T12:06:59;17.10;79.70
4223;DHT22;2125;51.436;14.138;2022-10-26T12:09:31;17.20;79.40
4223;DHT22;2125;51.436;14.138;2022-10-26T12:12:03;17.20;78.90
4223;DHT22;2125;51.436;14.138;2022-10-26T12:14:37;17.20;79.00
4223;DHT22;2125;51.436;14.138;2022-10-26T12:17:08;17.20;79.00
4223;DHT22;2125;51.436;14.138;2022-10-26T12:19:45;17.10;79.30
4223;DHT22;2125;51.436;14.138;2022-10-26T12:22:16;17.10;79.30
4223;DHT22;2125;51.436;14.138;2022-10-26T12:24:44;17.10;78.00
4223;DHT22;2125;51.436;14.138;2022-10-26T12:27:31;17.20;78.00
4223;DHT22;2125;51.436;14.138;2022-10-26T12:30:22;17.20;78.50
4223;DHT22;2125;51.436;14.138;2022-10-26T12:32:53;17.30;78.90
4223;DHT22;2125;51.436;14.138;2022-10-26T12:35:36;17.30;78.70
4223;DHT22;2125;51.436;14.138;2022-10-26T12:41:23;17.40;78.40
4223;DHT22;2125;51.436;14.138;2022-10-26T12:43:55;17.40;78.30
4223;DHT22;2125;51.436;14.138;2022-10-26T12:46:40;17.50;78.10
4223;DHT22;2125;51.436;14.138;2022-10-26T12:52:48;17.40;78.40
4223;DHT22;2125;51.436;14.138;2022-10-26T12:58:35;17.40;77.50
4223;DHT22;2125;51.436;14.138;2022-10-26T13:07:18;17.60;77.00
4223;DHT22;2125;51.436;14.138;2022-10-26T13:09:55;17.70;77.00
4223;DHT22;2125;51.436;14.138;2022-10-26T13:12:23;17.70;77.00
4223;DHT22;2125;51.436;14.138;2022-10-26T13:14:57;17.60;76.90
4223;DHT22;2125;51.436;14.138;2022-10-26T13:17:26;17.60;77.10
4223;DHT22;2125;51.436;14.138;2022-10-26T13:19:55;17.70;77.00
4223;DHT22;2125;51.436;14.138;2022-10-26T13:22:23;17.70;76.40
4223;DHT22;2125;51.436;14.138;2022-10-26T13:25:03;17.70;76.30
4223;DHT22;2125;51.436;14.138;2022-10-26T13:27:59;17.70;76.80
4223;DHT22;2125;51.436;14.138;2022-10-26T13:31:08;17.70;77.70
4223;DHT22;2125;51.436;14.138;2022-10-26T13:33:38;17.60;77.20
4223;DHT22;2125;51.436;14.138;2022-10-26T13:36:35;17.60;77.40
4223;DHT22;2125;51.436;14.138;2022-10-26T13:42:45;17.50;77.90
4223;DHT22;2125;51.436;14.138;2022-10-26T13:45:18;17.40;78.20
4223;DHT22;2125;51.436;14.138;2022-10-26T13:47:50;17.50;78.10
4223;DHT22;2125;51.436;14.138;2022-10-26T13:50:25;17.60;77.80
4223;DHT22;2125;51.436;14.138;2022-10-26T13:52:54;17.60;77.90
4223;DHT22;2125;51.436;14.138;2022-10-26T13:55:50;17.60;77.90
4223;DHT22;2125;51.436;14.138;2022-10-26T14:02:05;17.40;78.50
4223;DHT22;2125;51.436;14.138;2022-10-26T14:04:31;17.40;78.30
4223;DHT22;2125;51.436;14.138;2022-10-26T14:06:58;17.50;78.30
4223;DHT22;2125;51.436;14.138;2022-10-26T14:09:30;17.50;78.50
4223;DHT22;2125;51.436;14.138;2022-10-26T14:12:00;17.40;78.80
4223;DHT22;2125;51.436;14.138;2022-10-26T14:14:29;17.40;78.70
4223;DHT22;2125;51.436;14.138;2022-10-26T14:16:59;17.40;78.60
4223;DHT22;2125;51.436;14.138;2022-10-26T14:19:28;17.40;78.40
4223;DHT22;2125;51.436;14.138;2022-10-26T14:21:55;17.40;78.70
4223;DHT22;2125;51.436;14.138;2022-10-26T14:24:26;17.40;78.50
4223;DHT22;2125;51.436;14.138;2022-10-26T14:26:53;17.30;78.70
4223;DHT22;2125;51.436;14.138;2022-10-26T14:29:21;17.20;79.20
4223;DHT22;2125;51.436;14.138;2022-10-26T14:31:48;17.20;79.20
4223;DHT22;2125;51.436;14.138;2022-10-26T14:34:17;17.10;79.30
4223;DHT22;2125;51.436;14.138;2022-10-26T14:36:47;17.10;79.30
4223;DHT22;2125;51.436;14.138;2022-10-26T14:39:19;17.00;79.20
4223;DHT22;2125;51.436;14.138;2022-10-26T14:41:47;16.90;79.50
4223;DHT22;2125;51.436;14.138;2022-10-26T14:44:16;16.80;80.00
4223;DHT22;2125;51.436;14.138;2022-10-26T14:46:44;16.70;80.00
4223;DHT22;2125;51.436;14.138;2022-10-26T14:49:18;16.60;80.30
4223;DHT22;2125;51.436;14.138;2022-10-26T14:51:45;16.50;80.50
4223;DHT22;2125;51.436;14.138;2022-10-26T14:54:19;16.40;80.80
4223;DHT22;2125;51.436;14.138;2022-10-26T14:56:46;16.30;81.10
4223;DHT22;2125;51.436;14.138;2022-10-26T14:59:20;16.20;81.50
4223;DHT22;2125;51.436;14.138;2022-10-26T15:01:50;16.10;82.10
4223;DHT22;2125;51.436;14.138;2022-10-26T15:04:32;16.00;82.20
4223;DHT22;2125;51.436;14.138;2022-10-26T15:07:07;15.90;82.50
4223;DHT22;2125;51.436;14.138;2022-10-26T15:09:38;15.80;82.70
4223;DHT22;2125;51.436;14.138;2022-10-26T15:12:18;15.80;82.90
4223;DHT22;2125;51.436;14.138;2022-10-26T15:14:45;15.60;83.30
4223;DHT22;2125;51.436;14.138;2022-10-26T15:17:19;15.50;83.60
4223;DHT22;2125;51.436;14.138;2022-10-26T15:19:48;15.40;83.90
4223;DHT22;2125;51.436;14.138;2022-10-26T15:22:22;15.20;84.00
4223;DHT22;2125;51.436;14.138;2022-10-26T15:24:51;15.10;84.50
4223;DHT22;2125;51.436;14.138;2022-10-26T15:27:18;15.10;84.70
4223;DHT22;2125;51.436;14.138;2022-10-26T15:29:47;15.10;84.70
4223;DHT22;2125;51.436;14.138;2022-10-26T15:32:23;14.90;84.70
4223;DHT22;2125;51.436;14.138;2022-10-26T15:35:21;14.90;84.80
4223;DHT22;2125;51.436;14.138;2022-10-26T15:37:49;14.90;84.80
4223;DHT22;2125;51.436;14.138;2022-10-26T15:40:17;14.80;84.90
4223;DHT22;2125;51.436;14.138;2022-10-26T15:42:47;14.70;84.90
4223;DHT22;2125;51.436;14.138;2022-10-26T15:45:17;14.60;84.90
4223;DHT22;2125;51.436;14.138;2022-10-26T15:47:45;14.50;84.90
4223;DHT22;2125;51.436;14.138;2022-10-26T15:50:13;14.40;84.90
4223;DHT22;2125;51.436;14.138;2022-10-26T15:52:42;14.20;84.90
4223;DHT22;2125;51.436;14.138;2022-10-26T15:55:09;14.00;85.00
4223;DHT22;2125;51.436;14.138;2022-10-26T15:57:36;13.90;85.00
4223;DHT22;2125;51.436;14.138;2022-10-26T16:00:05;13.90;85.00
4223;DHT22;2125;51.436;14.138;2022-10-26T16:02:33;13.80;84.90
4223;DHT22;2125;51.436;14.138;2022-10-26T16:04:59;13.70;84.90
4223;DHT22;2125;51.436;14.138;2022-10-26T16:07:31;13.70;84.80
4223;DHT22;2125;51.436;14.138;2022-10-26T16:10:01;13.60;84.80
4223;DHT22;2125;51.436;14.138;2022-10-26T16:12:28;13.60;84.80
4223;DHT22;2125;51.436;14.138;2022-10-26T16:14:54;13.60;84.70
4223;DHT22;2125;51.436;14.138;2022-10-26T16:17:21;13.60;84.50
4223;DHT22;2125;51.436;14.138;2022-10-26T16:19:57;13.70;84.40
4223;DHT22;2125;51.436;14.138;2022-10-26T16:22:26;13.80;84.40
4223;DHT22;2125;51.436;14.138;2022-10-26T16:32:05;13.80;84.50
4223;DHT22;2125;51.436;14.138;2022-10-26T16:34:46;13.80;84.60
4223;DHT22;2125;51.436;14.138;2022-10-26T16:37:13;13.80;84.60
4223;DHT22;2125;51.436;14.138;2022-10-26T16:39:40;13.90;84.60
4223;DHT22;2125;51.436;14.138;2022-10-26T16:42:12;13.90;84.70
4223;DHT22;2125;51.436;14.138;2022-10-26T16:44:53;13.90;84.70
4223;DHT22;2125;51.436;14.138;2022-10-26T16:47:25;13.90;84.70
4223;DHT22;2125;51.436;14.138;2022-10-26T16:50:24;13.80;84.80
4223;DHT22;2125;51.436;14.138;2022-10-26T16:53:15;13.70;84.80
4223;DHT22;2125;51.436;14.138;2022-10-26T16:55:50;13.60;84.90
4223;DHT22;2125;51.436;14.138;2022-10-26T16:58:52;13.50;84.90
4223;DHT22;2125;51.436;14.138;2022-10-26T17:04:38;13.30;84.80
4223;DHT22;2125;51.436;14.138;2022-10-26T17:07:38;13.20;84.80
4223;DHT22;2125;51.436;14.138;2022-10-26T17:17:49;12.90;84.70
4223;DHT22;2125;51.436;14.138;2022-10-26T17:20:13;12.80;84.80
4223;DHT22;2125;51.436;14.138;2022-10-26T17:23:18;12.80;84.80
4223;DHT22;2125;51.436;14.138;2022-10-26T17:29:57;12.80;84.70
4223;DHT22;2125;51.436;14.138;2022-10-26T17:32:36;12.70;84.60
4223;DHT22;2125;51.436;14.138;2022-10-26T17:35:51;12.80;84.40
4223;DHT22;2125;51.436;14.138;2022-10-26T17:38:51;12.80;84.20
4223;DHT22;2125;51.436;14.138;2022-10-26T17:41:35;12.90;84.10
4223;DHT22;2125;51.436;14.138;2022-10-26T17:44:08;12.90;84.20
4223;DHT22;2125;51.436;14.138;2022-10-26T17:46:37;12.90;84.10
4223;DHT22;2125;51.436;14.138;2022-10-26T17:49:04;12.90;84.00
4223;DHT22;2125;51.436;14.138;2022-10-26T17:51:32;13.00;84.00
4223;DHT22;2125;51.436;14.138;2022-10-26T17:54:00;13.10;84.00
4223;DHT22;2125;51.436;14.138;2022-10-26T17:56:29;13.10;84.00
4223;DHT22;2125;51.436;14.138;2022-10-26T17:58:57;13.10;84.00
4223;DHT22;2125;51.436;14.138;2022-10-26T18:01:26;13.10;84.00
4223;DHT22;2125;51.436;14.138;2022-10-26T18:03:53;13.20;84.10
4223;DHT22;2125;51.436;14.138;2022-10-26T18:06:20;13.20;84.30
4223;DHT22;2125;51.436;14.138;2022-10-26T18:08:49;13.20;84.40
4223;DHT22;2125;51.436;14.138;2022-10-26T18:11:29;13.20;84.50
4223;DHT22;2125;51.436;14.138;2022-10-26T18:13:56;13.10;84.60
4223;DHT22;2125;51.436;14.138;2022-10-26T18:16:25;13.10;84.60
4223;DHT22;2125;51.436;14.138;2022-10-26T18:18:54;13.10;84.60
4223;DHT22;2125;51.436;14.138;2022-10-26T18:21:24;13.00;84.60
4223;DHT22;2125;51.436;14.138;2022-10-26T18:23:53;13.00;84.60
4223;DHT22;2125;51.436;14.138;2022-10-26T18:26:21;13.00;84.40
4223;DHT22;2125;51.436;14.138;2022-10-26T18:28:48;13.00;84.40
4223;DHT22;2125;51.436;14.138;2022-10-26T18:31:17;13.00;84.40
4223;DHT22;2125;51.436;14.138;2022-10-26T18:33:44;13.00;84.30
4223;DHT22;2125;51.436;14.138;2022-10-26T18:36:13;13.00;84.40
4223;DHT22;2125;51.436;14.138;2022-10-26T18:38:40;13.00;84.40
4223;DHT22;2125;51.436;14.138;2022-10-26T18:41:10;13.00;84.30
4223;DHT22;2125;51.436;14.138;2022-10-26T18:43:39;13.00;84.20
4223;DHT22;2125;51.436;14.138;2022-10-26T18:46:07;13.00;84.20
4223;DHT22;2125;51.436;14.138;2022-10-26T18:48:35;12.90;84.10
4223;DHT22;2125;51.436;14.138;2022-10-26T18:51:03;13.00;84.00
4223;DHT22;2125;51.436;14.138;2022-10-26T18:53:31;13.00;84.00
4223;DHT22;2125;51.436;14.138;2022-10-26T18:56:00;13.10;83.90
4223;DHT22;2125;51.436;14.138;2022-10-26T18:58:30;13.10;83.90
4223;DHT22;2125;51.436;14.138;2022-10-26T19:01:07;13.10;84.00
4223;DHT22;2125;51.436;14.138;2022-10-26T19:03:36;13.10;84.00
4223;DHT22;2125;51.436;14.138;2022-10-26T19:06:09;13.10;84.20
4223;DHT22;2125;51.436;14.138;2022-10-26T19:08:41;13.10;84.20
4223;DHT22;2125;51.436;14.138;2022-10-26T19:11:22;13.10;84.30
4223;DHT22;2125;51.436;14.138;2022-10-26T19:13:58;13.10;84.30
4223;DHT22;2125;51.436;14.138;2022-10-26T19:16:28;13.10;84.30
4223;DHT22;2125;51.436;14.138;2022-10-26T19:18:58;13.10;84.30
4223;DHT22;2125;51.436;14.138;2022-10-26T19:21:28;13.10;84.30
4223;DHT22;2125;51.436;14.138;2022-10-26T19:23:57;13.10;84.30
4223;DHT22;2125;51.436;14.138;2022-10-26T19:26:26;13.20;84.30
4223;DHT22;2125;51.436;14.138;2022-10-26T19:28:54;13.20;84.30
4223;DHT22;2125;51.436;14.138;2022-10-26T19:31:26;13.20;84.30
4223;DHT22;2125;51.436;14.138;2022-10-26T19:33:54;13.30;84.40
4223;DHT22;2125;51.436;14.138;2022-10-26T19:36:25;13.30;84.40
4223;DHT22;2125;51.436;14.138;2022-10-26T19:38:53;13.20;84.50
4223;DHT22;2125;51.436;14.138;2022-10-26T19:41:21;13.20;84.50
4223;DHT22;2125;51.436;14.138;2022-10-26T19:43:52;13.10;84.60
4223;DHT22;2125;51.436;14.138;2022-10-26T19:46:29;13.10;84.60
4223;DHT22;2125;51.436;14.138;2022-10-26T19:48:59;13.00;84.60
4223;DHT22;2125;51.436;14.138;2022-10-26T19:51:28;12.90;84.90
4223;DHT22;2125;51.436;14.138;2022-10-26T19:53:57;12.80;84.90
4223;DHT22;2125;51.436;14.138;2022-10-26T19:56:42;12.60;85.00
4223;DHT22;2125;51.436;14.138;2022-10-26T19:59:19;12.40;85.10
4223;DHT22;2125;51.436;14.138;2022-10-26T20:08:47;12.20;84.90
4223;DHT22;2125;51.436;14.138;2022-10-26T20:11:34;12.20;84.70
4223;DHT22;2125;51.436;14.138;2022-10-26T20:19:46;11.90;84.80
4223;DHT22;2125;51.436;14.138;2022-10-26T20:26:07;11.70;84.80
4223;DHT22;2125;51.436;14.138;2022-10-26T20:36:29;11.50;84.60
4223;DHT22;2125;51.436;14.138;2022-10-26T20:40:08;11.50;84.60
4223;DHT22;2125;51.436;14.138;2022-10-26T20:53:06;11.30;84.10
4223;DHT22;2125;51.436;14.138;2022-10-26T20:56:28;11.30;84.10
4223;DHT22;2125;51.436;14.138;2022-10-26T21:00:29;11.20;84.00
4223;DHT22;2125;51.436;14.138;2022-10-26T21:09:18;11.20;84.00
4223;DHT22;2125;51.436;14.138;2022-10-26T21:11:51;11.30;83.80
4223;DHT22;2125;51.436;14.138;2022-10-26T21:14:31;11.30;83.70
4223;DHT22;2125;51.436;14.138;2022-10-26T21:17:05;11.40;83.60
4223;DHT22;2125;51.436;14.138;2022-10-26T21:19:51;11.40;83.60
4223;DHT22;2125;51.436;14.138;2022-10-26T21:22:32;11.30;83.60
4223;DHT22;2125;51.436;14.138;2022-10-26T21:25:07;11.30;83.60
4223;DHT22;2125;51.436;14.138;2022-10-26T21:34:26;11.30;83.50
4223;DHT22;2125;51.436;14.138;2022-10-26T21:37:20;11.30;83.40
4223;DHT22;2125;51.436;14.138;2022-10-26T21:40:00;11.30;83.30
4223;DHT22;2125;51.436;14.138;2022-10-26T21:42:41;11.30;83.30
4223;DHT22;2125;51.436;14.138;2022-10-26T21:45:16;11.30;83.30
4223;DHT22;2125;51.436;14.138;2022-10-26T21:48:16;11.40;83.20
4223;DHT22;2125;51.436;14.138;2022-10-26T21:51:03;11.40;83.30
4223;DHT22;2125;51.436;14.138;2022-10-26T21:53:36;11.30;83.30
4223;DHT22;2125;51.436;14.138;2022-10-26T21:56:09;11.40;83.20
4223;DHT22;2125;51.436;14.138;2022-10-26T21:58:59;11.40;83.20
4223;DHT22;2125;51.436;14.138;2022-10-26T22:01:30;11.30;83.30
4223;DHT22;2125;51.436;14.138;2022-10-26T22:04:02;11.30;83.40
4223;DHT22;2125;51.436;14.138;2022-10-26T22:06:29;11.20;83.40
4223;DHT22;2125;51.436;14.138;2022-10-26T22:08:56;11.20;83.50
4223;DHT22;2125;51.436;14.138;2022-10-26T22:11:23;11.20;83.50
4223;DHT22;2125;51.436;14.138;2022-10-26T22:13:50;11.20;83.30
4223;DHT22;2125;51.436;14.138;2022-10-26T22:16:20;11.20;83.30
4223;DHT22;2125;51.436;14.138;2022-10-26T22:18:48;11.20;83.10
4223;DHT22;2125;51.436;14.138;2022-10-26T22:21:16;11.20;83.00
4223;DHT22;2125;51.436;14.138;2022-10-26T22:23:44;11.30;82.90
4223;DHT22;2125;51.436;14.138;2022-10-26T22:26:13;11.30;82.70
4223;DHT22;2125;51.436;14.138;2022-10-26T22:28:42;11.30;82.50
4223;DHT22;2125;51.436;14.138;2022-10-26T22:31:11;11.40;82.40
4223;DHT22;2125;51.436;14.138;2022-10-26T22:33:40;11.50;82.40
4223;DHT22;2125;51.436;14.138;2022-10-26T22:36:08;11.50;82.30
4223;DHT22;2125;51.436;14.138;2022-10-26T22:38:35;11.40;82.30
4223;DHT22;2125;51.436;14.138;2022-10-26T22:41:05;11.50;82.10
4223;DHT22;2125;51.436;14.138;2022-10-26T22:43:31;11.50;82.00
4223;DHT22;2125;51.436;14.138;2022-10-26T22:45:59;11.50;81.90
4223;DHT22;2125;51.436;14.138;2022-10-26T22:48:26;11.50;81.80
4223;DHT22;2125;51.436;14.138;2022-10-26T22:50:54;11.50;81.80
4223;DHT22;2125;51.436;14.138;2022-10-26T22:53:27;11.50;81.70
4223;DHT22;2125;51.436;14.138;2022-10-26T22:55:54;11.60;81.50
4223;DHT22;2125;51.436;14.138;2022-10-26T22:58:20;11.60;81.30
4223;DHT22;2125;51.436;14.138;2022-10-26T23:00:47;11.70;81.40
4223;DHT22;2125;51.436;14.138;2022-10-26T23:03:14;11.70;81.40
4223;DHT22;2125;51.436;14.138;2022-10-26T23:05:45;11.70;81.40
4223;DHT22;2125;51.436;14.138;2022-10-26T23:08:13;11.70;81.40
4223;DHT22;2125;51.436;14.138;2022-10-26T23:10:57;11.70;81.30
4223;DHT22;2125;51.436;14.138;2022-10-26T23:13:23;11.70;81.30
4223;DHT22;2125;51.436;14.138;2022-10-26T23:15:50;11.70;81.30
4223;DHT22;2125;51.436;14.138;2022-10-26T23:18:17;11.70;81.10
4223;DHT22;2125;51.436;14.138;2022-10-26T23:20:47;11.70;81.00
4223;DHT22;2125;51.436;14.138;2022-10-26T23:23:15;11.80;80.80
4223;DHT22;2125;51.436;14.138;2022-10-26T23:25:42;11.80;80.80
4223;DHT22;2125;51.436;14.138;2022-10-26T23:28:09;11.90;80.70
4223;DHT22;2125;51.436;14.138;2022-10-26T23:30:36;11.80;80.70
4223;DHT22;2125;51.436;14.138;2022-10-26T23:33:03;11.90;80.60
4223;DHT22;2125;51.436;14.138;2022-10-26T23:35:29;11.90;80.60
4223;DHT22;2125;51.436;14.138;2022-10-26T23:37:56;11.90;80.60
4223;DHT22;2125;51.436;14.138;2022-10-26T23:40:24;11.90;80.70
4223;DHT22;2125;51.436;14.138;2022-10-26T23:42:51;11.90;80.60
4223;DHT22;2125;51.436;14.138;2022-10-26T23:45:23;11.90;80.60
4223;DHT22;2125;51.436;14.138;2022-10-26T23:47:50;11.90;80.60
4223;DHT22;2125;51.436;14.138;2022-10-26T23:50:16;11.90;80.50
4223;DHT22;2125;51.436;14.138;2022-10-26T23:52:45;11.90;80.50
4223;DHT22;2125;51.436;14.138;2022-10-26T23:55:12;11.80;80.50
4223;DHT22;2125;51.436;14.138;2022-10-26T23:57:40;11.90;80.40
